sensor_id;sensor_type;location;lat;lon;timestamp;P1;durP1;ratioP1;P2;durP2;ratioP2
6432;SDS011;3249;42.690;23.260;2023-04-01T00:01:40;27.23;;;14.30;;
6432;SDS011;3249;42.690;23.260;2023-04-01T00:04:09;22.83;;;13.37;;
6432;SDS011;3249;42.690;23.260;2023-04-01T00:06:38;30.33;;;13.73;;
6432;SDS011;3249;42.690;23.260;2023-04-01T00:09:07;20.27;;;13.87;;
6432;SDS011;3249;42.690;23.260;2023-04-01T00:11:36;23.83;;;14.77;;
6432;SDS011;3249;42.690;23.260;2023-04-01T00:14:05;19.73;;;12.43;;
6432;SDS011;3249;42.690;23.260;2023-04-01T00:16:37;22.83;;;11.37;;
6432;SDS011;3249;42.690;23.260;2023-04-01T00:19:06;26.37;;;16.80;;
6432;SDS011;3249;42.690;23.260;2023-04-01T00:21:35;33.07;;;20.40;;
6432;SDS011;3249;42.690;23.260;2023-04-01T00:24:05;33.17;;;20.07;;
6432;SDS011;3249;42.690;23.260;2023-04-01T00:26:34;37.43;;;24.40;;
6432;SDS011;3249;42.690;23.260;2023-04-01T00:29:03;40.33;;;25.57;;
6432;SDS011;3249;42.690;23.260;2023-04-01T00:31:32;38.17;;;27.47;;
6432;SDS011;3249;42.690;23.260;2023-04-01T00:34:04;42.73;;;31.53;;
6432;SDS011;3249;42.690;23.260;2023-04-01T00:36:33;52.10;;;36.30;;
6432;SDS011;3249;42.690;23.260;2023-04-01T00:39:02;53.03;;;37.53;;
6432;SDS011;3249;42.690;23.260;2023-04-01T00:41:31;37.90;;;26.83;;
6432;SDS011;3249;42.690;23.260;2023-04-01T00:44:17;30.47;;;25.47;;
6432;SDS011;3249;42.690;23.260;2023-04-01T00:46:48;30.93;;;22.53;;
6432;SDS011;3249;42.690;23.260;2023-04-01T00:49:21;29.40;;;19.40;;
6432;SDS011;3249;42.690;23.260;2023-04-01T00:51:54;31.10;;;18.80;;
6432;SDS011;3249;42.690;23.260;2023-04-01T00:54:25;22.67;;;16.77;;
6432;SDS011;3249;42.690;23.260;2023-04-01T00:56:57;20.73;;;16.90;;
6432;SDS011;3249;42.690;23.260;2023-04-01T00:59:29;23.33;;;17.00;;
6432;SDS011;3249;42.690;23.260;2023-04-01T01:02:01;24.30;;;16.73;;
6432;SDS011;3249;42.690;23.260;2023-04-01T01:04:33;22.23;;;16.00;;
6432;SDS011;3249;42.690;23.260;2023-04-01T01:07:06;23.90;;;17.40;;
6432;SDS011;3249;42.690;23.260;2023-04-01T01:09:48;21.53;;;17.33;;
6432;SDS011;3249;42.690;23.260;2023-04-01T01:12:25;30.27;;;17.83;;
6432;SDS011;3249;42.690;23.260;2023-04-01T01:15:01;25.73;;;17.77;;
6432;SDS011;3249;42.690;23.260;2023-04-01T01:17:39;19.73;;;16.80;;
6432;SDS011;3249;42.690;23.260;2023-04-01T01:26:14;23.23;;;14.70;;
6432;SDS011;3249;42.690;23.260;2023-04-01T01:29:09;19.97;;;15.30;;
6432;SDS011;3249;42.690;23.260;2023-04-01T01:31:50;19.37;;;16.30;;
6432;SDS011;3249;42.690;23.260;2023-04-01T01:34:30;29.67;;;16.13;;
6432;SDS011;3249;42.690;23.260;2023-04-01T01:37:11;25.47;;;16.03;;
6432;SDS011;3249;42.690;23.260;2023-04-01T01:39:46;18.40;;;14.47;;
6432;SDS011;3249;42.690;23.260;2023-04-01T01:42:20;23.50;;;16.10;;
6432;SDS011;3249;42.690;23.260;2023-04-01T01:44:54;24.23;;;15.10;;
6432;SDS011;3249;42.690;23.260;2023-04-01T01:47:26;26.97;;;14.20;;
6432;SDS011;3249;42.690;23.260;2023-04-01T01:49:57;19.33;;;14.33;;
6432;SDS011;3249;42.690;23.260;2023-04-01T01:52:31;23.33;;;15.03;;
6432;SDS011;3249;42.690;23.260;2023-04-01T01:55:01;27.20;;;15.43;;
6432;SDS011;3249;42.690;23.260;2023-04-01T01:57:43;20.70;;;13.97;;
6432;SDS011;3249;42.690;23.260;2023-04-01T02:00:16;22.73;;;13.50;;
6432;SDS011;3249;42.690;23.260;2023-04-01T02:02:47;15.40;;;12.43;;
6432;SDS011;3249;42.690;23.260;2023-04-01T02:05:19;18.07;;;10.63;;
6432;SDS011;3249;42.690;23.260;2023-04-01T02:07:57;16.40;;;11.03;;
6432;SDS011;3249;42.690;23.260;2023-04-01T02:10:31;16.43;;;10.23;;
6432;SDS011;3249;42.690;23.260;2023-04-01T02:13:07;14.57;;;9.53;;
6432;SDS011;3249;42.690;23.260;2023-04-01T02:15:42;14.00;;;10.13;;
6432;SDS011;3249;42.690;23.260;2023-04-01T02:18:16;13.50;;;9.27;;
6432;SDS011;3249;42.690;23.260;2023-04-01T02:20:47;19.80;;;10.53;;
6432;SDS011;3249;42.690;23.260;2023-04-01T02:23:21;16.63;;;11.23;;
6432;SDS011;3249;42.690;23.260;2023-04-01T02:25:50;19.93;;;11.10;;
6432;SDS011;3249;42.690;23.260;2023-04-01T02:28:19;16.03;;;10.77;;
6432;SDS011;3249;42.690;23.260;2023-04-01T02:30:50;16.87;;;9.47;;
6432;SDS011;3249;42.690;23.260;2023-04-01T02:33:21;12.07;;;9.20;;
6432;SDS011;3249;42.690;23.260;2023-04-01T02:35:50;14.67;;;10.37;;
6432;SDS011;3249;42.690;23.260;2023-04-01T02:38:21;11.60;;;9.53;;
6432;SDS011;3249;42.690;23.260;2023-04-01T02:40:51;13.63;;;10.23;;
6432;SDS011;3249;42.690;23.260;2023-04-01T02:43:26;17.63;;;10.43;;
6432;SDS011;3249;42.690;23.260;2023-04-01T02:45:55;15.03;;;10.00;;
6432;SDS011;3249;42.690;23.260;2023-04-01T02:48:25;10.87;;;9.33;;
6432;SDS011;3249;42.690;23.260;2023-04-01T02:50:54;11.53;;;9.80;;
6432;SDS011;3249;42.690;23.260;2023-04-01T02:53:26;16.10;;;10.90;;
6432;SDS011;3249;42.690;23.260;2023-04-01T02:55:55;19.27;;;11.47;;
6432;SDS011;3249;42.690;23.260;2023-04-01T02:58:24;21.97;;;12.00;;
6432;SDS011;3249;42.690;23.260;2023-04-01T03:00:53;21.80;;;12.03;;
6432;SDS011;3249;42.690;23.260;2023-04-01T03:03:22;16.10;;;12.30;;
6432;SDS011;3249;42.690;23.260;2023-04-01T03:05:51;18.10;;;9.87;;
6432;SDS011;3249;42.690;23.260;2023-04-01T03:08:21;15.23;;;9.93;;
6432;SDS011;3249;42.690;23.260;2023-04-01T03:10:52;13.53;;;9.20;;
6432;SDS011;3249;42.690;23.260;2023-04-01T03:13:22;12.57;;;8.97;;
6432;SDS011;3249;42.690;23.260;2023-04-01T03:15:51;13.43;;;9.20;;
6432;SDS011;3249;42.690;23.260;2023-04-01T03:18:20;8.53;;;6.17;;
6432;SDS011;3249;42.690;23.260;2023-04-01T03:20:49;5.90;;;3.10;;
6432;SDS011;3249;42.690;23.260;2023-04-01T03:23:20;6.63;;;2.97;;
6432;SDS011;3249;42.690;23.260;2023-04-01T03:25:50;6.87;;;3.30;;
6432;SDS011;3249;42.690;23.260;2023-04-01T03:28:21;3.10;;;2.73;;
6432;SDS011;3249;42.690;23.260;2023-04-01T03:30:50;4.83;;;3.70;;
6432;SDS011;3249;42.690;23.260;2023-04-01T03:33:19;3.73;;;2.90;;
6432;SDS011;3249;42.690;23.260;2023-04-01T03:35:48;3.50;;;3.07;;
6432;SDS011;3249;42.690;23.260;2023-04-01T03:38:18;4.97;;;3.50;;
6432;SDS011;3249;42.690;23.260;2023-04-01T03:40:47;4.63;;;3.00;;
6432;SDS011;3249;42.690;23.260;2023-04-01T03:43:19;2.93;;;2.70;;
6432;SDS011;3249;42.690;23.260;2023-04-01T03:45:49;3.90;;;2.73;;
6432;SDS011;3249;42.690;23.260;2023-04-01T03:48:20;3.57;;;2.63;;
6432;SDS011;3249;42.690;23.260;2023-04-01T03:50:49;11.13;;;6.97;;
6432;SDS011;3249;42.690;23.260;2023-04-01T03:53:18;12.00;;;7.23;;
6432;SDS011;3249;42.690;23.260;2023-04-01T03:55:48;13.13;;;8.17;;
6432;SDS011;3249;42.690;23.260;2023-04-01T03:58:19;13.07;;;8.67;;
6432;SDS011;3249;42.690;23.260;2023-04-01T04:00:49;18.10;;;11.37;;
6432;SDS011;3249;42.690;23.260;2023-04-01T04:03:18;20.50;;;14.57;;
6432;SDS011;3249;42.690;23.260;2023-04-01T04:05:47;25.43;;;16.20;;
6432;SDS011;3249;42.690;23.260;2023-04-01T04:08:17;25.87;;;17.80;;
6432;SDS011;3249;42.690;23.260;2023-04-01T04:10:47;28.40;;;17.20;;
6432;SDS011;3249;42.690;23.260;2023-04-01T04:13:16;21.47;;;16.03;;
6432;SDS011;3249;42.690;23.260;2023-04-01T04:15:55;24.77;;;15.43;;
6432;SDS011;3249;42.690;23.260;2023-04-01T04:18:24;25.90;;;16.13;;
6432;SDS011;3249;42.690;23.260;2023-04-01T04:20:53;31.80;;;20.17;;
6432;SDS011;3249;42.690;23.260;2023-04-01T04:23:22;26.13;;;15.90;;
6432;SDS011;3249;42.690;23.260;2023-04-01T04:25:55;24.43;;;14.90;;
6432;SDS011;3249;42.690;23.260;2023-04-01T04:28:29;17.73;;;13.03;;
6432;SDS011;3249;42.690;23.260;2023-04-01T04:30:59;19.20;;;13.93;;
6432;SDS011;3249;42.690;23.260;2023-04-01T04:33:31;16.57;;;13.90;;
6432;SDS011;3249;42.690;23.260;2023-04-01T04:36:00;19.77;;;13.97;;
6432;SDS011;3249;42.690;23.260;2023-04-01T04:38:30;20.30;;;13.33;;
6432;SDS011;3249;42.690;23.260;2023-04-01T04:40:59;19.23;;;13.67;;
6432;SDS011;3249;42.690;23.260;2023-04-01T04:43:31;21.00;;;13.10;;
6432;SDS011;3249;42.690;23.260;2023-04-01T04:46:03;18.40;;;12.83;;
6432;SDS011;3249;42.690;23.260;2023-04-01T04:48:33;23.77;;;14.33;;
6432;SDS011;3249;42.690;23.260;2023-04-01T04:51:02;20.23;;;15.30;;
6432;SDS011;3249;42.690;23.260;2023-04-01T04:53:32;20.80;;;13.83;;
6432;SDS011;3249;42.690;23.260;2023-04-01T04:56:01;20.17;;;13.33;;
6432;SDS011;3249;42.690;23.260;2023-04-01T04:58:45;24.07;;;14.10;;
6432;SDS011;3249;42.690;23.260;2023-04-01T05:01:19;21.20;;;14.63;;
6432;SDS011;3249;42.690;23.260;2023-04-01T05:03:48;18.50;;;13.13;;
6432;SDS011;3249;42.690;23.260;2023-04-01T05:06:17;21.17;;;14.37;;
6432;SDS011;3249;42.690;23.260;2023-04-01T05:08:46;29.90;;;16.87;;
6432;SDS011;3249;42.690;23.260;2023-04-01T05:11:16;23.10;;;17.83;;
6432;SDS011;3249;42.690;23.260;2023-04-01T05:13:51;18.03;;;14.27;;
6432;SDS011;3249;42.690;23.260;2023-04-01T05:16:21;23.17;;;15.23;;
6432;SDS011;3249;42.690;23.260;2023-04-01T05:18:49;26.43;;;15.43;;
6432;SDS011;3249;42.690;23.260;2023-04-01T05:21:18;26.47;;;17.70;;
6432;SDS011;3249;42.690;23.260;2023-04-01T05:23:47;20.03;;;14.13;;
6432;SDS011;3249;42.690;23.260;2023-04-01T05:26:16;28.03;;;17.07;;
6432;SDS011;3249;42.690;23.260;2023-04-01T05:28:45;19.20;;;12.57;;
6432;SDS011;3249;42.690;23.260;2023-04-01T05:31:17;14.53;;;11.03;;
6432;SDS011;3249;42.690;23.260;2023-04-01T05:33:48;21.80;;;11.70;;
6432;SDS011;3249;42.690;23.260;2023-04-01T05:36:17;24.03;;;12.10;;
6432;SDS011;3249;42.690;23.260;2023-04-01T05:38:46;17.33;;;10.73;;
6432;SDS011;3249;42.690;23.260;2023-04-01T05:41:18;21.90;;;10.97;;
6432;SDS011;3249;42.690;23.260;2023-04-01T05:43:47;19.17;;;12.30;;
6432;SDS011;3249;42.690;23.260;2023-04-01T05:46:37;18.73;;;12.67;;
6432;SDS011;3249;42.690;23.260;2023-04-01T05:49:24;14.93;;;10.43;;
6432;SDS011;3249;42.690;23.260;2023-04-01T05:51:54;16.17;;;9.90;;
6432;SDS011;3249;42.690;23.260;2023-04-01T05:54:23;20.13;;;9.90;;
6432;SDS011;3249;42.690;23.260;2023-04-01T05:56:52;17.87;;;9.20;;
6432;SDS011;3249;42.690;23.260;2023-04-01T05:59:21;20.33;;;10.97;;
6432;SDS011;3249;42.690;23.260;2023-04-01T06:01:53;24.83;;;9.80;;
6432;SDS011;3249;42.690;23.260;2023-04-01T06:04:22;17.67;;;10.50;;
6432;SDS011;3249;42.690;23.260;2023-04-01T06:06:51;16.77;;;9.87;;
6432;SDS011;3249;42.690;23.260;2023-04-01T06:09:21;18.07;;;11.27;;
6432;SDS011;3249;42.690;23.260;2023-04-01T06:12:01;22.67;;;12.00;;
6432;SDS011;3249;42.690;23.260;2023-04-01T06:14:55;16.83;;;8.90;;
6432;SDS011;3249;42.690;23.260;2023-04-01T06:17:38;12.77;;;9.57;;
6432;SDS011;3249;42.690;23.260;2023-04-01T06:20:19;10.57;;;8.20;;
6432;SDS011;3249;42.690;23.260;2023-04-01T06:26:02;11.57;;;7.37;;
6432;SDS011;3249;42.690;23.260;2023-04-01T06:28:52;13.47;;;8.80;;
6432;SDS011;3249;42.690;23.260;2023-04-01T06:31:45;8.07;;;6.23;;
6432;SDS011;3249;42.690;23.260;2023-04-01T06:34:40;7.33;;;6.33;;
6432;SDS011;3249;42.690;23.260;2023-04-01T06:37:35;15.43;;;7.23;;
6432;SDS011;3249;42.690;23.260;2023-04-01T06:40:41;10.50;;;6.67;;
6432;SDS011;3249;42.690;23.260;2023-04-01T06:43:36;17.30;;;8.63;;
6432;SDS011;3249;42.690;23.260;2023-04-01T06:46:36;11.80;;;9.07;;
6432;SDS011;3249;42.690;23.260;2023-04-01T06:49:36;14.27;;;7.83;;
6432;SDS011;3249;42.690;23.260;2023-04-01T06:52:58;18.87;;;10.13;;
6432;SDS011;3249;42.690;23.260;2023-04-01T06:56:02;14.37;;;10.83;;
6432;SDS011;3249;42.690;23.260;2023-04-01T06:59:09;13.00;;;9.77;;
6432;SDS011;3249;42.690;23.260;2023-04-01T07:01:44;17.50;;;10.40;;
6432;SDS011;3249;42.690;23.260;2023-04-01T07:04:18;18.17;;;10.70;;
6432;SDS011;3249;42.690;23.260;2023-04-01T07:06:55;14.97;;;9.63;;
6432;SDS011;3249;42.690;23.260;2023-04-01T07:09:27;17.73;;;10.03;;
6432;SDS011;3249;42.690;23.260;2023-04-01T07:12:36;11.20;;;9.33;;
6432;SDS011;3249;42.690;23.260;2023-04-01T07:15:20;11.27;;;9.00;;
6432;SDS011;3249;42.690;23.260;2023-04-01T07:17:55;11.90;;;7.87;;
6432;SDS011;3249;42.690;23.260;2023-04-01T07:20:28;15.87;;;9.87;;
6432;SDS011;3249;42.690;23.260;2023-04-01T07:23:05;14.40;;;8.40;;
6432;SDS011;3249;42.690;23.260;2023-04-01T07:26:04;10.00;;;7.63;;
6432;SDS011;3249;42.690;23.260;2023-04-01T07:29:05;10.63;;;6.50;;
6432;SDS011;3249;42.690;23.260;2023-04-01T07:31:54;14.27;;;8.20;;
6432;SDS011;3249;42.690;23.260;2023-04-01T07:34:39;14.27;;;8.80;;
6432;SDS011;3249;42.690;23.260;2023-04-01T07:37:21;12.33;;;9.93;;
6432;SDS011;3249;42.690;23.260;2023-04-01T07:40:00;13.47;;;9.77;;
6432;SDS011;3249;42.690;23.260;2023-04-01T07:42:41;13.27;;;9.20;;
6432;SDS011;3249;42.690;23.260;2023-04-01T07:45:26;15.67;;;10.10;;
6432;SDS011;3249;42.690;23.260;2023-04-01T07:48:06;17.33;;;10.30;;
6432;SDS011;3249;42.690;23.260;2023-04-01T07:50:49;18.27;;;9.43;;
6432;SDS011;3249;42.690;23.260;2023-04-01T07:53:25;11.33;;;8.50;;
6432;SDS011;3249;42.690;23.260;2023-04-01T07:56:08;14.77;;;8.07;;
6432;SDS011;3249;42.690;23.260;2023-04-01T07:58:48;11.30;;;9.20;;
6432;SDS011;3249;42.690;23.260;2023-04-01T08:01:53;12.63;;;9.53;;
6432;SDS011;3249;42.690;23.260;2023-04-01T08:04:33;15.13;;;9.50;;
6432;SDS011;3249;42.690;23.260;2023-04-01T08:07:13;15.97;;;8.67;;
6432;SDS011;3249;42.690;23.260;2023-04-01T08:10:13;13.13;;;9.17;;
6432;SDS011;3249;42.690;23.260;2023-04-01T08:13:11;11.43;;;8.93;;
6432;SDS011;3249;42.690;23.260;2023-04-01T08:16:09;16.73;;;9.33;;
6432;SDS011;3249;42.690;23.260;2023-04-01T08:18:52;12.83;;;8.63;;
6432;SDS011;3249;42.690;23.260;2023-04-01T08:21:28;18.77;;;9.33;;
6432;SDS011;3249;42.690;23.260;2023-04-01T08:24:05;13.17;;;8.37;;
6432;SDS011;3249;42.690;23.260;2023-04-01T08:26:47;16.10;;;9.10;;
6432;SDS011;3249;42.690;23.260;2023-04-01T08:29:25;22.77;;;14.50;;
6432;SDS011;3249;42.690;23.260;2023-04-01T08:32:06;47.90;;;36.57;;
6432;SDS011;3249;42.690;23.260;2023-04-01T08:34:42;16.50;;;10.40;;
6432;SDS011;3249;42.690;23.260;2023-04-01T08:37:25;23.77;;;11.67;;
6432;SDS011;3249;42.690;23.260;2023-04-01T08:40:02;13.60;;;7.70;;
6432;SDS011;3249;42.690;23.260;2023-04-01T08:42:50;8.57;;;6.40;;
6432;SDS011;3249;42.690;23.260;2023-04-01T08:45:34;8.77;;;7.83;;
6432;SDS011;3249;42.690;23.260;2023-04-01T08:48:18;13.47;;;7.87;;
6432;SDS011;3249;42.690;23.260;2023-04-01T08:51:07;11.13;;;6.30;;
6432;SDS011;3249;42.690;23.260;2023-04-01T08:54:01;10.70;;;7.70;;
6432;SDS011;3249;42.690;23.260;2023-04-01T08:56:47;12.97;;;6.87;;
6432;SDS011;3249;42.690;23.260;2023-04-01T08:59:33;8.30;;;6.30;;
6432;SDS011;3249;42.690;23.260;2023-04-01T09:02:49;5.20;;;4.70;;
6432;SDS011;3249;42.690;23.260;2023-04-01T09:05:31;4.70;;;4.30;;
6432;SDS011;3249;42.690;23.260;2023-04-01T09:08:10;6.57;;;4.80;;
6432;SDS011;3249;42.690;23.260;2023-04-01T09:10:56;10.83;;;5.37;;
6432;SDS011;3249;42.690;23.260;2023-04-01T09:20:30;6.40;;;4.70;;
6432;SDS011;3249;42.690;23.260;2023-04-01T09:23:23;8.03;;;4.80;;
6432;SDS011;3249;42.690;23.260;2023-04-01T09:26:07;5.50;;;4.93;;
6432;SDS011;3249;42.690;23.260;2023-04-01T09:28:53;6.20;;;3.27;;
6432;SDS011;3249;42.690;23.260;2023-04-01T09:31:46;4.67;;;3.30;;
6432;SDS011;3249;42.690;23.260;2023-04-01T09:34:54;10.17;;;3.87;;
6432;SDS011;3249;42.690;23.260;2023-04-01T09:37:34;5.33;;;3.27;;
6432;SDS011;3249;42.690;23.260;2023-04-01T09:40:16;9.13;;;4.47;;
6432;SDS011;3249;42.690;23.260;2023-04-01T09:42:57;10.73;;;3.77;;
6432;SDS011;3249;42.690;23.260;2023-04-01T09:45:40;9.47;;;3.30;;
6432;SDS011;3249;42.690;23.260;2023-04-01T09:48:31;7.47;;;3.20;;
6432;SDS011;3249;42.690;23.260;2023-04-01T09:51:22;5.60;;;3.57;;
6432;SDS011;3249;42.690;23.260;2023-04-01T09:54:04;8.40;;;4.33;;
6432;SDS011;3249;42.690;23.260;2023-04-01T10:00:07;5.23;;;3.70;;
6432;SDS011;3249;42.690;23.260;2023-04-01T10:06:08;15.73;;;4.03;;
6432;SDS011;3249;42.690;23.260;2023-04-01T10:12:01;11.03;;;3.67;;
6432;SDS011;3249;42.690;23.260;2023-04-01T10:14:59;4.43;;;3.67;;
6432;SDS011;3249;42.690;23.260;2023-04-01T10:18:08;8.90;;;4.30;;
6432;SDS011;3249;42.690;23.260;2023-04-01T10:21:03;3.83;;;3.50;;
6432;SDS011;3249;42.690;23.260;2023-04-01T10:43:13;4.90;;;3.27;;
6432;SDS011;3249;42.690;23.260;2023-04-01T10:46:17;4.40;;;3.30;;
6432;SDS011;3249;42.690;23.260;2023-04-01T10:49:10;3.30;;;3.10;;
6432;SDS011;3249;42.690;23.260;2023-04-01T10:55:46;6.90;;;4.67;;
6432;SDS011;3249;42.690;23.260;2023-04-01T11:21:00;7.07;;;4.03;;
6432;SDS011;3249;42.690;23.260;2023-04-01T11:24:05;4.67;;;3.40;;
6432;SDS011;3249;42.690;23.260;2023-04-01T11:27:25;10.00;;;4.10;;
6432;SDS011;3249;42.690;23.260;2023-04-01T11:30:14;7.70;;;4.30;;
6432;SDS011;3249;42.690;23.260;2023-04-01T11:32:57;8.27;;;3.93;;
6432;SDS011;3249;42.690;23.260;2023-04-01T11:35:48;10.73;;;4.33;;
6432;SDS011;3249;42.690;23.260;2023-04-01T11:38:44;6.37;;;3.53;;
6432;SDS011;3249;42.690;23.260;2023-04-01T11:41:49;4.23;;;3.67;;
6432;SDS011;3249;42.690;23.260;2023-04-01T11:44:43;3.90;;;3.60;;
6432;SDS011;3249;42.690;23.260;2023-04-01T11:47:44;3.73;;;3.43;;
6432;SDS011;3249;42.690;23.260;2023-04-01T11:50:27;5.77;;;4.33;;
6432;SDS011;3249;42.690;23.260;2023-04-01T11:53:12;7.37;;;4.40;;
6432;SDS011;3249;42.690;23.260;2023-04-01T11:55:55;5.80;;;4.23;;
6432;SDS011;3249;42.690;23.260;2023-04-01T11:58:42;5.23;;;3.97;;
6432;SDS011;3249;42.690;23.260;2023-04-01T12:04:34;7.90;;;4.60;;
6432;SDS011;3249;42.690;23.260;2023-04-01T12:07:21;6.53;;;4.50;;
6432;SDS011;3249;42.690;23.260;2023-04-01T12:10:05;5.03;;;4.13;;
6432;SDS011;3249;42.690;23.260;2023-04-01T12:12:51;4.50;;;3.57;;
6432;SDS011;3249;42.690;23.260;2023-04-01T12:15:29;6.47;;;4.17;;
6432;SDS011;3249;42.690;23.260;2023-04-01T12:18:14;4.83;;;4.43;;
6432;SDS011;3249;42.690;23.260;2023-04-01T12:20:50;7.23;;;4.50;;
6432;SDS011;3249;42.690;23.260;2023-04-01T12:23:37;5.57;;;5.10;;
6432;SDS011;3249;42.690;23.260;2023-04-01T12:29:18;6.60;;;5.47;;
6432;SDS011;3249;42.690;23.260;2023-04-01T12:31:59;10.63;;;4.57;;
6432;SDS011;3249;42.690;23.260;2023-04-01T12:34:40;3.80;;;3.40;;
6432;SDS011;3249;42.690;23.260;2023-04-01T12:37:26;3.07;;;2.87;;
6432;SDS011;3249;42.690;23.260;2023-04-01T12:43:11;2.43;;;2.27;;
6432;SDS011;3249;42.690;23.260;2023-04-01T12:46:00;2.73;;;2.37;;
6432;SDS011;3249;42.690;23.260;2023-04-01T12:51:40;2.10;;;2.00;;
6432;SDS011;3249;42.690;23.260;2023-04-01T12:57:41;2.73;;;2.23;;
6432;SDS011;3249;42.690;23.260;2023-04-01T13:00:39;2.83;;;2.50;;
6432;SDS011;3249;42.690;23.260;2023-04-01T13:03:22;3.20;;;2.90;;
6432;SDS011;3249;42.690;23.260;2023-04-01T13:09:01;4.93;;;4.53;;
6432;SDS011;3249;42.690;23.260;2023-04-01T13:11:45;5.20;;;4.70;;
6432;SDS011;3249;42.690;23.260;2023-04-01T13:14:35;6.30;;;4.40;;
6432;SDS011;3249;42.690;23.260;2023-04-01T13:17:25;5.47;;;3.57;;
6432;SDS011;3249;42.690;23.260;2023-04-01T13:20:05;6.37;;;4.80;;
6432;SDS011;3249;42.690;23.260;2023-04-01T13:22:48;4.93;;;4.40;;
6432;SDS011;3249;42.690;23.260;2023-04-01T13:25:26;4.83;;;3.40;;
6432;SDS011;3249;42.690;23.260;2023-04-01T13:28:05;3.50;;;3.17;;
6432;SDS011;3249;42.690;23.260;2023-04-01T13:30:43;3.47;;;3.10;;
6432;SDS011;3249;42.690;23.260;2023-04-01T13:33:20;4.10;;;3.80;;
6432;SDS011;3249;42.690;23.260;2023-04-01T13:36:03;3.00;;;2.80;;
6432;SDS011;3249;42.690;23.260;2023-04-01T13:38:53;2.80;;;2.60;;
6432;SDS011;3249;42.690;23.260;2023-04-01T13:41:44;5.23;;;2.87;;
6432;SDS011;3249;42.690;23.260;2023-04-01T13:44:24;2.33;;;2.13;;
6432;SDS011;3249;42.690;23.260;2023-04-01T13:47:03;2.33;;;2.13;;
6432;SDS011;3249;42.690;23.260;2023-04-01T14:01:48;2.20;;;2.07;;
6432;SDS011;3249;42.690;23.260;2023-04-01T14:07:38;2.30;;;2.20;;
6432;SDS011;3249;42.690;23.260;2023-04-01T14:10:22;2.20;;;2.10;;
6432;SDS011;3249;42.690;23.260;2023-04-01T14:13:01;1.87;;;1.77;;
6432;SDS011;3249;42.690;23.260;2023-04-01T14:15:39;2.63;;;2.43;;
6432;SDS011;3249;42.690;23.260;2023-04-01T14:18:23;1.90;;;1.80;;
6432;SDS011;3249;42.690;23.260;2023-04-01T14:21:08;2.37;;;2.27;;
6432;SDS011;3249;42.690;23.260;2023-04-01T14:27:06;2.50;;;2.30;;
6432;SDS011;3249;42.690;23.260;2023-04-01T14:29:52;3.27;;;2.70;;
6432;SDS011;3249;42.690;23.260;2023-04-01T14:32:36;2.37;;;2.17;;
6432;SDS011;3249;42.690;23.260;2023-04-01T14:35:30;2.37;;;2.17;;
6432;SDS011;3249;42.690;23.260;2023-04-01T14:38:14;3.00;;;2.80;;
6432;SDS011;3249;42.690;23.260;2023-04-01T14:40:56;2.23;;;2.13;;
6432;SDS011;3249;42.690;23.260;2023-04-01T14:46:27;3.20;;;2.90;;
6432;SDS011;3249;42.690;23.260;2023-04-01T14:49:14;3.87;;;2.83;;
6432;SDS011;3249;42.690;23.260;2023-04-01T14:51:48;3.57;;;2.83;;
6432;SDS011;3249;42.690;23.260;2023-04-01T14:54:21;4.13;;;2.93;;
6432;SDS011;3249;42.690;23.260;2023-04-01T14:57:05;2.87;;;2.63;;
6432;SDS011;3249;42.690;23.260;2023-04-01T14:59:49;3.33;;;3.03;;
6432;SDS011;3249;42.690;23.260;2023-04-01T15:02:29;3.10;;;2.73;;
6432;SDS011;3249;42.690;23.260;2023-04-01T15:05:11;2.43;;;2.33;;
6432;SDS011;3249;42.690;23.260;2023-04-01T15:16:41;2.43;;;2.33;;
6432;SDS011;3249;42.690;23.260;2023-04-01T15:19:17;4.33;;;2.27;;
6432;SDS011;3249;42.690;23.260;2023-04-01T15:21:59;2.40;;;2.10;;
6432;SDS011;3249;42.690;23.260;2023-04-01T15:24:46;4.03;;;2.50;;
6432;SDS011;3249;42.690;23.260;2023-04-01T15:27:20;2.90;;;2.80;;
6432;SDS011;3249;42.690;23.260;2023-04-01T15:30:02;3.20;;;2.23;;
6432;SDS011;3249;42.690;23.260;2023-04-01T15:32:51;3.27;;;2.97;;
6432;SDS011;3249;42.690;23.260;2023-04-01T15:35:43;3.10;;;2.80;;
6432;SDS011;3249;42.690;23.260;2023-04-01T15:38:22;2.80;;;2.60;;
6432;SDS011;3249;42.690;23.260;2023-04-01T15:41:02;4.63;;;2.83;;
6432;SDS011;3249;42.690;23.260;2023-04-01T15:43:40;2.37;;;2.20;;
6432;SDS011;3249;42.690;23.260;2023-04-01T15:46:17;3.70;;;1.90;;
6432;SDS011;3249;42.690;23.260;2023-04-01T15:49:04;1.87;;;1.77;;
6432;SDS011;3249;42.690;23.260;2023-04-01T15:51:47;4.30;;;2.10;;
6432;SDS011;3249;42.690;23.260;2023-04-01T15:57:27;6.07;;;3.40;;
6432;SDS011;3249;42.690;23.260;2023-04-01T16:00:13;2.30;;;2.20;;
6432;SDS011;3249;42.690;23.260;2023-04-01T16:02:53;2.87;;;2.67;;
6432;SDS011;3249;42.690;23.260;2023-04-01T16:05:49;3.30;;;3.00;;
6432;SDS011;3249;42.690;23.260;2023-04-01T16:08:41;3.17;;;2.83;;
6432;SDS011;3249;42.690;23.260;2023-04-01T16:11:24;3.40;;;3.10;;
6432;SDS011;3249;42.690;23.260;2023-04-01T16:14:09;3.20;;;3.00;;
6432;SDS011;3249;42.690;23.260;2023-04-01T16:16:55;5.17;;;2.80;;
6432;SDS011;3249;42.690;23.260;2023-04-01T16:19:37;2.87;;;2.67;;
6432;SDS011;3249;42.690;23.260;2023-04-01T16:22:19;3.97;;;3.67;;
6432;SDS011;3249;42.690;23.260;2023-04-01T16:25:07;3.23;;;3.03;;
6432;SDS011;3249;42.690;23.260;2023-04-01T16:27:50;4.63;;;3.57;;
6432;SDS011;3249;42.690;23.260;2023-04-01T16:30:32;3.07;;;2.87;;
6432;SDS011;3249;42.690;23.260;2023-04-01T16:33:08;3.67;;;3.37;;
6432;SDS011;3249;42.690;23.260;2023-04-01T16:35:45;2.30;;;2.20;;
6432;SDS011;3249;42.690;23.260;2023-04-01T16:38:25;3.20;;;2.90;;
6432;SDS011;3249;42.690;23.260;2023-04-01T16:41:14;2.80;;;2.67;;
6432;SDS011;3249;42.690;23.260;2023-04-01T16:43:46;3.83;;;3.53;;
6432;SDS011;3249;42.690;23.260;2023-04-01T16:46:26;3.20;;;3.00;;
6432;SDS011;3249;42.690;23.260;2023-04-01T16:49:04;2.97;;;2.77;;
6432;SDS011;3249;42.690;23.260;2023-04-01T16:51:52;3.60;;;3.30;;
6432;SDS011;3249;42.690;23.260;2023-04-01T16:54:30;3.03;;;2.77;;
6432;SDS011;3249;42.690;23.260;2023-04-01T16:57:14;2.50;;;2.40;;
6432;SDS011;3249;42.690;23.260;2023-04-01T16:59:52;3.80;;;2.70;;
6432;SDS011;3249;42.690;23.260;2023-04-01T17:02:28;2.03;;;1.93;;
6432;SDS011;3249;42.690;23.260;2023-04-01T17:05:03;2.43;;;2.23;;
6432;SDS011;3249;42.690;23.260;2023-04-01T17:07:40;2.00;;;1.90;;
6432;SDS011;3249;42.690;23.260;2023-04-01T17:10:28;1.90;;;1.80;;
6432;SDS011;3249;42.690;23.260;2023-04-01T17:13:29;1.97;;;1.87;;
6432;SDS011;3249;42.690;23.260;2023-04-01T17:16:07;2.00;;;1.90;;
6432;SDS011;3249;42.690;23.260;2023-04-01T17:18:49;1.87;;;1.77;;
6432;SDS011;3249;42.690;23.260;2023-04-01T17:21:28;2.50;;;2.40;;
6432;SDS011;3249;42.690;23.260;2023-04-01T17:24:04;2.10;;;2.00;;
6432;SDS011;3249;42.690;23.260;2023-04-01T17:26:50;2.70;;;2.60;;
6432;SDS011;3249;42.690;23.260;2023-04-01T17:29:31;2.50;;;2.40;;
6432;SDS011;3249;42.690;23.260;2023-04-01T17:32:25;2.30;;;2.20;;
6432;SDS011;3249;42.690;23.260;2023-04-01T17:35:11;2.03;;;1.93;;
6432;SDS011;3249;42.690;23.260;2023-04-01T17:37:48;2.33;;;2.23;;
6432;SDS011;3249;42.690;23.260;2023-04-01T17:40:33;2.97;;;2.87;;
6432;SDS011;3249;42.690;23.260;2023-04-01T17:43:12;3.33;;;3.13;;
6432;SDS011;3249;42.690;23.260;2023-04-01T17:45:54;3.10;;;3.00;;
6432;SDS011;3249;42.690;23.260;2023-04-01T17:48:30;2.73;;;2.63;;
6432;SDS011;3249;42.690;23.260;2023-04-01T17:51:22;3.40;;;3.20;;
6432;SDS011;3249;42.690;23.260;2023-04-01T17:54:00;3.20;;;2.90;;
6432;SDS011;3249;42.690;23.260;2023-04-01T17:56:42;2.80;;;2.60;;
6432;SDS011;3249;42.690;23.260;2023-04-01T17:59:26;3.37;;;3.03;;
6432;SDS011;3249;42.690;23.260;2023-04-01T18:02:09;4.20;;;3.90;;
6432;SDS011;3249;42.690;23.260;2023-04-01T18:07:58;8.30;;;5.13;;
6432;SDS011;3249;42.690;23.260;2023-04-01T18:10:41;10.07;;;6.33;;
6432;SDS011;3249;42.690;23.260;2023-04-01T18:13:27;15.30;;;8.53;;